createdAt,value
2023-01-12T05:13:16.193Z,33.73
2023-01-12T05:15:44.157Z,37.37
2023-01-12T05:18:11.602Z,15.93
2023-01-12T05:20:39.032Z,31.50
2023-01-12T05:23:06.416Z,39.73
2023-01-12T05:25:33.838Z,35.97
2023-01-12T05:28:01.324Z,28.53
2023-01-12T05:30:31.734Z,29.85
2023-01-12T05:32:59.599Z,46.45
2023-01-12T05:35:27.069Z,31.53
2023-01-12T05:37:57.372Z,65.80
2023-01-12T05:40:25.009Z,49.27
2023-01-12T05:43:11.366Z,26.37
2023-01-12T05:45:38.811Z,34.13
2023-01-12T05:48:06.596Z,26.40
2023-01-12T05:50:34.084Z,29.77
2023-01-12T05:53:10.773Z,29.87
2023-01-12T05:55:38.465Z,33.70
2023-01-12T05:58:05.863Z,33.88
2023-01-12T06:00:33.284Z,50.00
2023-01-12T06:03:03.170Z,57.97
2023-01-12T06:05:30.574Z,29.65
2023-01-12T06:07:58.596Z,38.50
2023-01-12T06:10:26.179Z,34.18
2023-01-12T06:13:12.139Z,36.77
2023-01-12T06:15:40.211Z,41.77
2023-01-12T06:18:07.693Z,32.60
2023-01-12T06:20:35.480Z,19.20
2023-01-12T06:23:05.189Z,59.70
2023-01-12T06:25:32.782Z,47.38
2023-01-12T06:28:00.171Z,47.40
2023-01-12T06:30:27.737Z,50.73
2023-01-12T06:32:55.124Z,28.05
2023-01-12T06:35:22.479Z,50.60
2023-01-12T06:37:49.959Z,35.83
2023-01-12T06:40:17.462Z,33.80
2023-01-12T06:42:44.869Z,33.90
2023-01-12T06:45:12.613Z,32.90
2023-01-12T06:47:50.822Z,38.38
2023-01-12T06:50:18.677Z,37.45
2023-01-12T06:52:46.083Z,69.92
2023-01-12T06:55:13.565Z,43.90
2023-01-12T06:57:41.172Z,52.07
2023-01-12T07:00:09.647Z,32.03
2023-01-12T07:02:37.075Z,46.48
2023-01-12T07:05:05.383Z,39.18
2023-01-12T07:07:32.827Z,61.73
2023-01-12T07:10:00.259Z,62.73
2023-01-12T12:41:40.216Z,37.50
2023-01-12T12:44:38.984Z,36.00
2023-01-12T13:00:51.568Z,82.08
2023-01-12T13:03:41.337Z,36.98
2023-01-12T13:06:34.428Z,46.83
2023-01-12T13:09:17.163Z,46.77
2023-01-12T13:11:59.058Z,65.72
2023-01-12T13:14:34.186Z,54.10
2023-01-12T13:17:02.695Z,80.07
2023-01-12T13:19:39.195Z,48.70
2023-01-12T13:22:28.668Z,36.03
2023-01-12T13:25:01.062Z,48.85
2023-01-12T13:27:47.670Z,52.38
2023-01-12T13:30:30.634Z,80.95
2023-01-12T13:33:16.240Z,75.12
2023-01-12T13:35:47.100Z,49.03
2023-01-12T13:38:50.395Z,55.28
2023-01-12T13:41:50.382Z,45.60
2023-01-12T13:44:35.222Z,48.20
2023-01-12T13:47:11.463Z,59.75
2023-01-12T13:49:54.428Z,85.97
2023-01-12T13:52:34.089Z,70.28
2023-01-12T13:55:02.239Z,38.78
2023-01-12T13:57:31.442Z,38.55
2023-01-12T14:00:11.275Z,57.15
2023-01-12T14:02:42.193Z,49.88
2023-01-12T14:05:37.770Z,68.07
2023-01-12T14:09:06.451Z,36.03
2023-01-12T14:12:13.487Z,48.98
2023-01-12T14:15:18.078Z,28.90
2023-01-12T14:17:58.019Z,49.65
2023-01-12T14:20:28.008Z,56.58
2023-01-12T14:23:20.011Z,41.45
2023-01-12T14:26:07.213Z,39.25
2023-01-12T14:28:35.414Z,55.55
2023-01-12T14:31:04.118Z,40.33
2023-01-12T14:33:36.215Z,55.15
2023-01-12T14:36:13.168Z,56.40
2023-01-12T14:38:42.051Z,43.55
2023-01-12T14:41:35.574Z,35.60
2023-01-12T14:44:22.623Z,24.12
2023-01-12T14:46:52.919Z,29.60
2023-01-12T14:49:30.473Z,28.70
2023-01-12T14:52:17.946Z,28.45
2023-01-12T14:54:45.355Z,31.83
2023-01-12T14:57:35.154Z,23.57
2023-01-12T15:00:03.535Z,31.37
2023-01-12T15:02:35.559Z,24.20
2023-01-12T15:05:34.700Z,13.55
2023-01-12T15:08:03.109Z,21.68
2023-01-12T15:13:33.419Z,26.33
2023-01-12T15:16:20.487Z,38.30
2023-01-12T15:19:06.888Z,23.32
2023-01-12T15:21:53.613Z,30.35
2023-01-12T15:24:49.967Z,37.95
2023-01-12T15:27:19.708Z,31.82
2023-01-12T15:29:47.337Z,17.47
2023-01-12T15:32:38.081Z,28.65
2023-01-12T15:35:24.183Z,51.30
2023-01-12T15:37:58.176Z,28.47
2023-01-12T15:40:30.031Z,58.50
2023-01-12T15:42:59.359Z,35.75
2023-01-12T15:45:37.307Z,38.45
2023-01-12T15:48:05.992Z,40.97
2023-01-12T15:50:34.025Z,48.80
2023-01-12T15:53:06.356Z,102.95
2023-01-12T15:55:39.046Z,88.92
2023-01-12T15:58:06.897Z,79.60
2023-01-12T16:00:34.559Z,98.52
2023-01-12T16:03:02.006Z,129.55
2023-01-12T16:05:29.750Z,110.80
2023-01-12T22:16:25.914Z,71.15
2023-01-12T22:18:53.604Z,76.82
2023-01-12T22:21:21.984Z,57.43
2023-01-12T22:26:17.696Z,74.65
2023-01-12T22:28:47.857Z,72.40
2023-01-12T22:31:18.592Z,54.25
2023-01-12T22:34:04.188Z,68.52
2023-01-12T22:36:34.911Z,57.40
2023-01-12T22:39:02.931Z,48.05
2023-01-12T22:41:30.437Z,50.60
2023-01-12T22:43:57.935Z,49.17
2023-01-12T22:46:26.985Z,40.12
2023-01-12T22:48:57.276Z,42.05
2023-01-12T22:51:26.060Z,44.25
2023-01-12T22:53:54.365Z,42.93
2023-01-12T22:56:21.837Z,36.28
2023-01-12T22:58:51.688Z,39.35
2023-01-12T23:01:20.207Z,27.50
2023-01-12T23:03:51.107Z,35.85
2023-01-12T23:06:18.708Z,53.73
2023-01-12T23:08:46.557Z,33.70
2023-01-12T23:11:19.089Z,40.80
2023-01-12T23:13:46.974Z,41.10
2023-01-12T23:16:16.378Z,37.98
2023-01-12T23:18:45.296Z,34.70
2023-01-12T23:21:16.228Z,32.67
2023-01-12T23:23:46.520Z,26.27
2023-01-12T23:26:17.228Z,42.27
2023-01-12T23:28:50.427Z,59.58
2023-01-12T23:31:24.663Z,46.63
2023-01-12T23:33:53.045Z,39.33
2023-01-12T23:36:26.921Z,41.10
2023-01-12T23:38:56.158Z,33.43
2023-01-12T23:41:26.775Z,43.65
2023-01-12T23:43:59.634Z,53.70
2023-01-12T23:46:29.070Z,43.78
2023-01-12T23:48:57.824Z,46.68
2023-01-12T23:51:27.008Z,45.92
2023-01-12T23:53:59.728Z,28.70
2023-01-12T23:56:31.205Z,30.48
2023-01-12T23:58:58.827Z,27.70
